createdAt,value
2022-11-17T00:00:33.094Z,3.33
2022-11-17T00:06:07.595Z,2.88
2022-11-17T00:11:57.473Z,2.92
2022-11-17T00:17:28.789Z,2.95
2022-11-17T00:22:59.863Z,3.40
2022-11-17T00:28:30.996Z,3.53
2022-11-17T00:34:07.834Z,3.13
2022-11-17T00:39:40.436Z,3.20
2022-11-17T00:45:11.758Z,3.10
2022-11-17T00:50:42.893Z,3.40
2022-11-17T00:56:14.099Z,2.90
2022-11-17T01:01:45.275Z,3.00
2022-11-17T01:07:16.566Z,3.20
2022-11-17T01:12:47.919Z,3.20
2022-11-17T01:18:18.778Z,3.20
2022-11-17T01:23:51.210Z,2.85
2022-11-17T01:29:22.270Z,2.58
2022-11-17T01:34:53.666Z,3.08
2022-11-17T01:40:24.745Z,2.95
2022-11-17T01:46:00.718Z,2.92
2022-11-17T01:51:33.949Z,2.95
2022-11-17T01:57:28.382Z,2.70
2022-11-17T02:03:00.010Z,3.30
2022-11-17T02:08:33.213Z,3.40
2022-11-17T02:14:05.701Z,2.95
2022-11-17T02:19:42.481Z,2.78
2022-11-17T02:25:16.435Z,2.88
2022-11-17T02:31:02.557Z,2.78
2022-11-17T02:36:56.338Z,2.60
2022-11-17T02:42:50.481Z,2.72
2022-11-17T02:48:28.675Z,2.75
2022-11-17T02:54:00.341Z,2.60
2022-11-17T02:59:35.120Z,2.80
2022-11-17T03:05:21.331Z,2.50
2022-11-17T03:10:57.893Z,2.47
2022-11-17T03:16:59.558Z,2.60
2022-11-17T03:22:33.929Z,2.58
2022-11-17T03:28:08.175Z,2.30
2022-11-17T03:33:41.096Z,2.35
2022-11-17T03:39:18.190Z,2.57
2022-11-17T03:44:51.954Z,2.40
2022-11-17T03:50:32.433Z,2.42
2022-11-17T03:56:15.311Z,2.17
2022-11-17T04:01:46.473Z,2.28
2022-11-17T04:07:17.927Z,2.45
2022-11-17T04:13:08.268Z,2.15
2022-11-17T04:18:39.432Z,2.20
2022-11-17T04:24:10.452Z,2.10
2022-11-17T04:29:41.740Z,2.25
2022-11-17T04:35:12.687Z,2.33
2022-11-17T04:41:04.036Z,2.60
2022-11-17T04:46:37.534Z,2.42
2022-11-17T04:52:08.592Z,2.03
2022-11-17T04:57:39.540Z,2.28
2022-11-17T05:03:10.913Z,2.60
2022-11-17T05:08:42.446Z,2.35
2022-11-17T05:14:15.928Z,2.65
2022-11-17T05:19:48.401Z,2.38
2022-11-17T05:25:19.514Z,2.20
2022-11-17T05:30:50.785Z,2.40
2022-11-17T05:36:23.215Z,2.42
2022-11-17T05:41:54.465Z,2.47
2022-11-17T05:47:25.758Z,2.97
2022-11-17T05:52:56.935Z,2.95
2022-11-17T05:58:30.374Z,2.55
2022-11-17T06:04:03.650Z,3.10
2022-11-17T06:09:37.026Z,2.67
2022-11-17T06:15:08.229Z,2.78
2022-11-17T06:20:42.178Z,3.03
2022-11-17T06:26:13.926Z,3.20
2022-11-17T06:31:45.568Z,3.38
2022-11-17T06:37:16.656Z,3.38
2022-11-17T06:43:06.344Z,3.42
2022-11-17T06:48:38.223Z,3.28
2022-11-17T06:54:10.882Z,3.50
2022-11-17T06:59:41.742Z,3.30
2022-11-17T07:05:13.112Z,3.42
2022-11-17T07:10:49.149Z,2.90
2022-11-17T07:16:23.787Z,3.00
2022-11-17T07:27:25.922Z,3.15
2022-11-17T07:33:00.139Z,3.50
2022-11-17T07:38:34.041Z,3.13
2022-11-17T07:44:05.618Z,4.00
2022-11-17T07:49:36.844Z,3.83
2022-11-17T07:55:08.501Z,3.58
2022-11-17T08:00:39.605Z,3.60
2022-11-17T08:06:11.461Z,3.65
2022-11-17T08:11:42.427Z,3.45
2022-11-17T08:17:13.564Z,3.40
2022-11-17T08:22:44.737Z,4.28
2022-11-17T08:28:15.591Z,4.00
2022-11-17T08:33:46.472Z,3.80
2022-11-17T08:39:17.368Z,3.85
2022-11-17T08:44:48.331Z,3.97
2022-11-17T08:50:21.060Z,4.30
2022-11-17T08:55:52.815Z,4.35
2022-11-17T09:01:24.196Z,4.38
2022-11-17T09:06:55.806Z,4.57
2022-11-17T09:12:27.192Z,4.28
2022-11-17T09:17:58.272Z,4.35
2022-11-17T09:23:30.063Z,4.30
2022-11-17T09:29:03.327Z,4.05
2022-11-17T09:34:34.526Z,4.63
2022-11-17T09:40:07.231Z,4.40
2022-11-17T09:45:39.137Z,3.95
2022-11-17T09:51:14.511Z,4.20
2022-11-17T09:56:46.988Z,4.35
2022-11-17T10:02:18.136Z,4.68
2022-11-17T10:07:51.213Z,4.72
2022-11-17T10:13:25.675Z,4.67
2022-11-17T10:18:57.555Z,4.55
2022-11-17T10:24:34.927Z,4.75
2022-11-17T10:30:11.987Z,4.47
2022-11-17T10:35:54.631Z,4.75
2022-11-17T10:41:29.565Z,4.35
2022-11-17T10:47:07.445Z,4.50
2022-11-17T10:52:38.636Z,4.93
2022-11-17T10:58:27.997Z,4.65
2022-11-17T11:03:59.426Z,5.03
2022-11-17T11:09:31.148Z,4.72
2022-11-17T11:15:03.558Z,4.78
2022-11-17T11:21:12.665Z,4.45
2022-11-17T11:27:15.096Z,4.90
2022-11-17T11:32:58.659Z,4.80
2022-11-17T11:39:02.082Z,4.85
2022-11-17T11:44:54.846Z,5.00
2022-11-17T11:50:28.137Z,4.60
2022-11-17T11:56:23.594Z,4.97
2022-11-17T12:02:25.083Z,4.65
2022-11-17T12:08:10.356Z,4.15
2022-11-17T12:13:48.483Z,4.63
2022-11-17T12:19:44.593Z,4.38
2022-11-17T12:25:30.716Z,4.28
2022-11-17T12:31:24.583Z,4.55
2022-11-17T12:37:16.849Z,4.18
2022-11-17T12:43:15.924Z,4.03
2022-11-17T12:48:57.025Z,4.22
2022-11-17T12:54:41.226Z,3.60
2022-11-17T13:00:15.460Z,4.13
2022-11-17T13:06:28.289Z,4.15
2022-11-17T13:12:02.218Z,3.80
2022-11-17T13:17:40.420Z,3.58
2022-11-17T13:23:23.801Z,3.35
2022-11-17T13:29:06.860Z,3.63
2022-11-17T13:34:58.069Z,3.20
2022-11-17T13:40:30.164Z,3.30
2022-11-17T13:46:04.263Z,3.85
2022-11-17T13:51:39.429Z,3.10
2022-11-17T13:57:30.273Z,3.58
2022-11-17T14:03:05.627Z,3.58
2022-11-17T14:08:37.897Z,3.35
2022-11-17T14:14:13.567Z,3.33
2022-11-17T14:19:44.759Z,3.25
2022-11-17T14:25:15.881Z,3.10
2022-11-17T14:30:51.212Z,3.47
2022-11-17T14:36:22.671Z,3.35
2022-11-17T14:41:54.039Z,3.17
2022-11-17T14:47:24.935Z,3.17
2022-11-17T14:52:56.175Z,3.17
2022-11-17T14:58:27.279Z,3.55
2022-11-17T15:04:06.994Z,2.80
2022-11-17T15:09:47.206Z,3.03
2022-11-17T15:15:18.405Z,3.35
2022-11-17T15:21:02.732Z,3.38
2022-11-17T15:32:06.067Z,3.78
2022-11-17T15:37:37.365Z,3.75
2022-11-17T15:43:08.509Z,3.35
2022-11-17T15:48:43.293Z,3.50
2022-11-17T15:54:19.931Z,3.80
2022-11-17T15:59:52.301Z,3.55
2022-11-17T16:05:23.676Z,3.42
2022-11-17T16:10:55.709Z,3.85
2022-11-17T16:16:29.144Z,4.07
2022-11-17T16:22:00.159Z,3.90
2022-11-17T16:27:33.057Z,3.92
2022-11-17T16:33:09.762Z,3.83
2022-11-17T16:38:55.066Z,3.97
2022-11-17T16:44:31.696Z,4.90
2022-11-17T16:50:04.148Z,3.72
2022-11-17T16:55:36.723Z,3.65
2022-11-17T17:01:17.204Z,4.07
2022-11-17T17:06:48.240Z,3.95
2022-11-17T17:12:19.335Z,3.83
2022-11-17T17:17:50.698Z,3.80
2022-11-17T17:23:22.016Z,4.18
2022-11-17T17:28:55.448Z,4.18
2022-11-17T17:34:26.615Z,4.15
2022-11-17T17:39:57.853Z,4.00
2022-11-17T17:45:29.630Z,4.13
2022-11-17T17:51:02.478Z,4.00
2022-11-17T17:56:34.047Z,4.30
2022-11-17T18:02:05.105Z,4.18
2022-11-17T18:07:36.326Z,4.00
2022-11-17T18:13:10.645Z,4.25
2022-11-17T18:18:42.394Z,4.43
2022-11-17T18:24:14.129Z,4.10
2022-11-17T18:29:45.501Z,3.83
2022-11-17T18:35:16.729Z,4.55
2022-11-17T18:40:47.697Z,4.43
2022-11-17T18:46:21.678Z,4.25
2022-11-17T18:51:53.242Z,3.92
2022-11-17T18:57:24.410Z,4.60
2022-11-17T19:02:55.500Z,5.22
2022-11-17T19:08:30.769Z,5.25
2022-11-17T19:14:04.337Z,4.75
2022-11-17T19:25:07.570Z,4.82
2022-11-17T19:30:38.976Z,5.32
2022-11-17T19:36:11.202Z,4.75
2022-11-17T19:41:42.274Z,5.10
2022-11-17T19:47:13.403Z,5.25
2022-11-17T19:52:45.037Z,5.00
2022-11-17T19:58:17.631Z,5.20
2022-11-17T20:03:49.190Z,5.18
2022-11-17T20:09:20.370Z,5.25
2022-11-17T20:14:51.723Z,5.07
2022-11-17T20:20:22.809Z,5.25
2022-11-17T20:25:53.878Z,5.15
2022-11-17T20:31:26.798Z,4.90
2022-11-17T20:36:57.892Z,5.27
2022-11-17T20:42:29.230Z,5.10
2022-11-17T20:48:00.280Z,4.80
2022-11-17T20:53:32.349Z,4.88
2022-11-17T20:59:03.695Z,4.63
2022-11-17T21:04:35.187Z,4.57
2022-11-17T21:10:06.752Z,4.63
2022-11-17T21:15:37.751Z,4.30
2022-11-17T21:21:09.259Z,4.78
2022-11-17T21:26:40.466Z,4.53
2022-11-17T21:32:11.654Z,4.55
2022-11-17T21:37:43.057Z,4.60
2022-11-17T21:43:14.547Z,4.72
2022-11-17T21:48:46.350Z,4.38
2022-11-17T21:54:17.440Z,4.13
2022-11-17T21:59:48.753Z,4.32
2022-11-17T22:05:19.816Z,4.95
2022-11-17T22:10:50.816Z,4.18
2022-11-17T22:16:21.617Z,4.15
2022-11-17T22:21:53.868Z,4.30
2022-11-17T22:27:26.657Z,4.53
2022-11-17T22:32:58.058Z,4.10
2022-11-17T22:38:30.590Z,4.32
2022-11-17T22:44:01.874Z,4.00
2022-11-17T22:49:33.309Z,5.78
2022-11-17T22:55:05.227Z,4.50
2022-11-17T23:00:36.456Z,4.60
2022-11-17T23:06:07.641Z,4.03
2022-11-17T23:11:39.178Z,4.25
2022-11-17T23:17:10.530Z,4.40
2022-11-17T23:22:42.647Z,4.55
2022-11-17T23:28:13.665Z,4.22
2022-11-17T23:33:46.642Z,4.47
2022-11-17T23:39:18.074Z,4.40
2022-11-17T23:44:50.046Z,4.20
2022-11-17T23:50:21.363Z,5.00
2022-11-17T23:55:56.507Z,4.13
